This is the latest recevied weather packets stored in our database for station/object CT1EDG-13. If no packets are shown the sender has not sent any weather packets the latest 10 day(s).
| Time | Temp. | Humidity | Pressure | Rain* | Wind** | Luminosity | Snow |
|---|---|---|---|---|---|---|---|
| 1787855533 | 21.67° C | 90% | 1007.9 hPa | 0 mm | - | - | - |
| 1787855531 | 21.67° C | 90% | 1007.9 hPa | 0 mm | - | - | - |
| 1787854934 | 22.22° C | 88% | 1007.9 hPa | 0 mm | - | - | - |
| 1787854931 | 22.22° C | 88% | 1007.9 hPa | 0 mm | - | - | - |
| 1787854332 | 21.11° C | 93% | 1007.8 hPa | 0 mm | - | - | - |
| 1787854331 | 21.11° C | 93% | 1007.8 hPa | 0 mm | - | - | - |
| 1787853732 | 21.67° C | 88% | 1007.8 hPa | 0 mm | - | - | - |
| 1787853731 | 21.67° C | 88% | 1007.8 hPa | 0 mm | - | - | - |
| 1787853132 | 22.22° C | 84% | 1007.8 hPa | 0 mm | - | - | - |
| 1787853131 | 22.22° C | 84% | 1007.8 hPa | 0 mm | - | - | - |
| 1787852532 | 22.22° C | 83% | 1007.7 hPa | 0 mm | - | - | - |
| 1787852531 | 22.22° C | 83% | 1007.7 hPa | 0 mm | - | - | - |
| 1787851933 | 22.78° C | 82% | 1007.7 hPa | 0 mm | - | - | - |
| 1787851931 | 22.78° C | 82% | 1007.7 hPa | 0 mm | - | - | - |
| 1787851332 | 22.78° C | 81% | 1007.6 hPa | 0 mm | - | - | - |
| 1787850734 | 23.33° C | 82% | 1007.5 hPa | 0 mm | - | - | - |
| 1787850731 | 23.33° C | 82% | 1007.5 hPa | 0 mm | - | - | - |
| 1787850132 | 21.67° C | 91% | 1007.6 hPa | 0 mm | - | - | - |
| 1787850131 | 21.67° C | 91% | 1007.6 hPa | 0 mm | - | - | - |
| 1787849532 | 22.78° C | 87% | 1007.5 hPa | 0 mm | - | - | - |
| 1787849531 | 22.78° C | 87% | 1007.5 hPa | 0 mm | - | - | - |
| 1787848932 | 22.78° C | 83% | 1007.4 hPa | 0 mm | - | - | - |
| 1787848931 | 22.78° C | 83% | 1007.4 hPa | 0 mm | - | - | - |
| 1787848332 | 22.78° C | 81% | 1007.4 hPa | 0 mm | - | - | - |
| 1787848331 | 22.78° C | 81% | 1007.4 hPa | 0 mm | - | - | - |
* Rain latest hour (hover to see other rain measurements)
** Current wind speed in m/s (hover to see current wind gust speed)